VOZ1746 YBAS-YPAD
Flight info
| Callsign | VOZ1746 |
|---|---|
| Flight time | 1h 50m |
| Altitude | 35000 |
| Route | AS J251 WHA H84 AD |
| Aircraft | B738/M-SDE2E3FGHIRWXY/LB1 |
Departure
| Time | 2026-04-26 03:49 |
|---|---|
| Airport | Alice Springs Airport (YBAS) |
Arrival
| Time | 2026-04-26 05:39 |
|---|---|
| Airport | Adelaide International Airport (YPAD) |
| Time | Latitude | Longitude | Altitude | Speed | Heading |
|---|---|---|---|---|---|
| 2026-04-26 03:25 | -23.80308 | 133.90181 | 1790 ft | 0 kts | 62° |
| 2026-04-26 03:27 | -23.80308 | 133.90180 | 1790 ft | 0 kts | 62° |
| 2026-04-26 03:40 | -23.80314 | 133.90170 | 1788 ft | 2 kts | 59° |
| 2026-04-26 03:40 | -23.80323 | 133.90155 | 1789 ft | 2 kts | 50° |
| 2026-04-26 03:40 | -23.80335 | 133.90143 | 1788 ft | 2 kts | 359° |
| 2026-04-26 03:41 | -23.80348 | 133.90150 | 1787 ft | 1 kts | 303° |
| 2026-04-26 03:41 | -23.80349 | 133.90153 | 1787 ft | 0 kts | 301° |
| 2026-04-26 03:45 | -23.80348 | 133.90151 | 1787 ft | 2 kts | 302° |
| 2026-04-26 03:45 | -23.80322 | 133.90103 | 1788 ft | 14 kts | 301° |
| 2026-04-26 03:46 | -23.80331 | 133.90003 | 1788 ft | 13 kts | 214° |
| 2026-04-26 03:46 | -23.80384 | 133.89968 | 1788 ft | 9 kts | 211° |
| 2026-04-26 03:46 | -23.80404 | 133.89905 | 1788 ft | 12 kts | 289° |
| 2026-04-26 03:47 | -23.80257 | 133.89628 | 1788 ft | 26 kts | 301° |
| 2026-04-26 03:47 | -23.80171 | 133.89466 | 1788 ft | 24 kts | 294° |
| 2026-04-26 03:47 | -23.80149 | 133.89345 | 1790 ft | 3 kts | 302° |
| 2026-04-26 03:47 | -23.80130 | 133.89339 | 1791 ft | 3 kts | 359° |
| 2026-04-26 03:48 | -23.80113 | 133.89356 | 1791 ft | 4 kts | 74° |
| 2026-04-26 03:48 | -23.80119 | 133.89375 | 1790 ft | 0 kts | 122° |
| 2026-04-26 03:48 | -23.80143 | 133.89416 | 1788 ft | 26 kts | 121° |
| 2026-04-26 03:48 | -23.80365 | 133.89828 | 1787 ft | 100 kts | 120° |
| 2026-04-26 03:49 | -23.80835 | 133.90705 | 1791 ft | 162 kts | 120° |
| 2026-04-26 03:49 | -23.81418 | 133.91778 | 2380 ft | 175 kts | 118° |
| 2026-04-26 03:49 | -23.82024 | 133.92926 | 3367 ft | 172 kts | 118° |
| 2026-04-26 03:49 | -23.82650 | 133.94093 | 3934 ft | 187 kts | 118° |
| 2026-04-26 03:50 | -23.83342 | 133.95375 | 4159 ft | 211 kts | 119° |
| 2026-04-26 03:50 | -23.84155 | 133.96844 | 4418 ft | 231 kts | 123° |
| 2026-04-26 03:50 | -23.85202 | 133.98231 | 4855 ft | 242 kts | 134° |
| 2026-04-26 03:50 | -23.86507 | 133.99424 | 5171 ft | 260 kts | 144° |
| 2026-04-26 03:51 | -23.88177 | 134.00369 | 5751 ft | 270 kts | 157° |
| 2026-04-26 03:51 | -23.89998 | 134.00883 | 6612 ft | 272 kts | 170° |
| 2026-04-26 03:51 | -23.91905 | 134.00941 | 7374 ft | 276 kts | 184° |
| 2026-04-26 03:51 | -23.93784 | 134.00516 | 8240 ft | 277 kts | 195° |
| 2026-04-26 03:52 | -23.95627 | 133.99894 | 9064 ft | 277 kts | 193° |
| 2026-04-26 03:52 | -23.97501 | 133.99418 | 9912 ft | 276 kts | 187° |
| 2026-04-26 03:52 | -23.99416 | 133.99106 | 10467 ft | 285 kts | 184° |
| 2026-04-26 03:52 | -24.01478 | 133.98950 | 10628 ft | 308 kts | 180° |
| 2026-04-26 03:53 | -24.03704 | 133.98979 | 10789 ft | 330 kts | 176° |
| 2026-04-26 03:53 | -24.06060 | 133.99231 | 10935 ft | 350 kts | 171° |
| 2026-04-26 03:53 | -24.08514 | 133.99738 | 11102 ft | 367 kts | 166° |
| 2026-04-26 03:53 | -24.10967 | 134.00513 | 11483 ft | 375 kts | 161° |
| 2026-04-26 03:54 | -24.13430 | 134.01518 | 12009 ft | 379 kts | 160° |
| 2026-04-26 03:54 | -24.15910 | 134.02535 | 12524 ft | 383 kts | 161° |
| 2026-04-26 03:54 | -24.18426 | 134.03560 | 13001 ft | 388 kts | 161° |
| 2026-04-26 03:54 | -24.20971 | 134.04592 | 13485 ft | 392 kts | 161° |
| 2026-04-26 03:55 | -24.23541 | 134.05631 | 13963 ft | 396 kts | 161° |
| 2026-04-26 03:55 | -24.26139 | 134.06681 | 14409 ft | 399 kts | 161° |
| 2026-04-26 03:55 | -24.28752 | 134.07737 | 14880 ft | 401 kts | 161° |
| 2026-04-26 03:55 | -24.31376 | 134.08797 | 15336 ft | 403 kts | 161° |
| 2026-04-26 03:56 | -24.34021 | 134.09867 | 15786 ft | 406 kts | 161° |
| 2026-04-26 03:56 | -24.36683 | 134.10944 | 16218 ft | 408 kts | 161° |
| 2026-04-26 03:56 | -24.39325 | 134.12013 | 16638 ft | 411 kts | 161° |
| 2026-04-26 03:56 | -24.42018 | 134.13103 | 17046 ft | 413 kts | 161° |
| 2026-04-26 03:57 | -24.44722 | 134.14197 | 17451 ft | 415 kts | 161° |
| 2026-04-26 03:57 | -24.47442 | 134.15299 | 17847 ft | 418 kts | 160° |
| 2026-04-26 03:57 | -24.50176 | 134.16408 | 18231 ft | 420 kts | 160° |
| 2026-04-26 03:57 | -24.52926 | 134.17523 | 18571 ft | 422 kts | 160° |
| 2026-04-26 03:58 | -24.55690 | 134.18644 | 18912 ft | 424 kts | 160° |
| 2026-04-26 03:58 | -24.58465 | 134.19771 | 19258 ft | 426 kts | 160° |
| 2026-04-26 03:58 | -24.61254 | 134.20903 | 19593 ft | 427 kts | 160° |
| 2026-04-26 03:58 | -24.64051 | 134.22040 | 19916 ft | 429 kts | 160° |
| 2026-04-26 03:59 | -24.66856 | 134.23180 | 20242 ft | 431 kts | 160° |
| 2026-04-26 03:59 | -24.69681 | 134.24329 | 20573 ft | 433 kts | 161° |
| 2026-04-26 03:59 | -24.72511 | 134.25480 | 20905 ft | 434 kts | 161° |
| 2026-04-26 03:59 | -24.75350 | 134.26636 | 21214 ft | 436 kts | 161° |
| 2026-04-26 04:00 | -24.78167 | 134.27783 | 21519 ft | 438 kts | 161° |
| 2026-04-26 04:00 | -24.81032 | 134.28951 | 21827 ft | 440 kts | 161° |
| 2026-04-26 04:00 | -24.83920 | 134.30128 | 22051 ft | 444 kts | 161° |
| 2026-04-26 04:00 | -24.86813 | 134.31308 | 22458 ft | 443 kts | 161° |
| 2026-04-26 04:01 | -24.89707 | 134.32490 | 22800 ft | 444 kts | 161° |
| 2026-04-26 04:01 | -24.92608 | 134.33674 | 23075 ft | 446 kts | 161° |
| 2026-04-26 04:01 | -24.95526 | 134.34866 | 23330 ft | 449 kts | 161° |
| 2026-04-26 04:01 | -24.98459 | 134.36065 | 23606 ft | 450 kts | 161° |
| 2026-04-26 04:02 | -25.01401 | 134.37268 | 23848 ft | 452 kts | 161° |
| 2026-04-26 04:02 | -25.04352 | 134.38475 | 24087 ft | 453 kts | 161° |
| 2026-04-26 04:02 | -25.07311 | 134.39688 | 24311 ft | 454 kts | 161° |
| 2026-04-26 04:02 | -25.10279 | 134.40906 | 24529 ft | 456 kts | 161° |
| 2026-04-26 04:03 | -25.13255 | 134.42128 | 24759 ft | 457 kts | 161° |
| 2026-04-26 04:03 | -25.16241 | 134.43356 | 24974 ft | 458 kts | 161° |
| 2026-04-26 04:03 | -25.19238 | 134.44589 | 25181 ft | 460 kts | 161° |
| 2026-04-26 04:03 | -25.22243 | 134.45825 | 25391 ft | 461 kts | 161° |
| 2026-04-26 04:04 | -25.25140 | 134.47018 | 25597 ft | 463 kts | 161° |
| 2026-04-26 04:04 | -25.28162 | 134.48263 | 25809 ft | 464 kts | 161° |
| 2026-04-26 04:04 | -25.31191 | 134.49512 | 25985 ft | 466 kts | 161° |
| 2026-04-26 04:04 | -25.34229 | 134.50765 | 26177 ft | 467 kts | 161° |
| 2026-04-26 04:05 | -25.37281 | 134.52024 | 26376 ft | 468 kts | 161° |
| 2026-04-26 04:05 | -25.40335 | 134.53285 | 26581 ft | 469 kts | 161° |
| 2026-04-26 04:05 | -25.43391 | 134.54547 | 26824 ft | 469 kts | 161° |
| 2026-04-26 04:05 | -25.46444 | 134.55809 | 27127 ft | 468 kts | 161° |
| 2026-04-26 04:06 | -25.49489 | 134.57069 | 27454 ft | 466 kts | 161° |
| 2026-04-26 04:06 | -25.52525 | 134.58325 | 27750 ft | 465 kts | 161° |
| 2026-04-26 04:06 | -25.55558 | 134.59581 | 28020 ft | 465 kts | 161° |
| 2026-04-26 04:06 | -25.58591 | 134.60837 | 28288 ft | 465 kts | 161° |
| 2026-04-26 04:07 | -25.61578 | 134.62075 | 28597 ft | 464 kts | 161° |
| 2026-04-26 04:07 | -25.64596 | 134.63326 | 28941 ft | 463 kts | 161° |
| 2026-04-26 04:07 | -25.67618 | 134.64580 | 29251 ft | 462 kts | 161° |
| 2026-04-26 04:07 | -25.70627 | 134.65829 | 29504 ft | 463 kts | 161° |
| 2026-04-26 04:08 | -25.73644 | 134.67081 | 29826 ft | 462 kts | 161° |
| 2026-04-26 04:08 | -25.76652 | 134.68331 | 30174 ft | 461 kts | 161° |
| 2026-04-26 04:08 | -25.79651 | 134.69578 | 30430 ft | 461 kts | 161° |
| 2026-04-26 04:08 | -25.82651 | 134.70826 | 30682 ft | 460 kts | 161° |
| 2026-04-26 04:09 | -25.85646 | 134.72073 | 30970 ft | 459 kts | 161° |
| 2026-04-26 04:09 | -25.88638 | 134.73318 | 31274 ft | 458 kts | 161° |
| 2026-04-26 04:09 | -25.91617 | 134.74560 | 31534 ft | 458 kts | 161° |
| 2026-04-26 04:09 | -25.94603 | 134.75805 | 31778 ft | 458 kts | 161° |
| 2026-04-26 04:10 | -25.97582 | 134.77047 | 32056 ft | 457 kts | 161° |
| 2026-04-26 04:10 | -26.00550 | 134.78286 | 32352 ft | 455 kts | 161° |
| 2026-04-26 04:10 | -26.03522 | 134.79527 | 32610 ft | 455 kts | 161° |
| 2026-04-26 04:10 | -26.06488 | 134.80766 | 32850 ft | 455 kts | 161° |
| 2026-04-26 04:11 | -26.09450 | 134.82004 | 33113 ft | 454 kts | 161° |
| 2026-04-26 04:11 | -26.12410 | 134.83242 | 33395 ft | 453 kts | 161° |
| 2026-04-26 04:11 | -26.15328 | 134.84463 | 33640 ft | 453 kts | 161° |
| 2026-04-26 04:11 | -26.18276 | 134.85697 | 33862 ft | 453 kts | 162° |
| 2026-04-26 04:12 | -26.21229 | 134.86934 | 34108 ft | 452 kts | 162° |
| 2026-04-26 04:12 | -26.24174 | 134.88169 | 34342 ft | 451 kts | 162° |
| 2026-04-26 04:12 | -26.27115 | 134.89402 | 34541 ft | 451 kts | 162° |
| 2026-04-26 04:12 | -26.30049 | 134.90633 | 34719 ft | 451 kts | 162° |
| 2026-04-26 04:13 | -26.32985 | 134.91865 | 34921 ft | 451 kts | 162° |
| 2026-04-26 04:13 | -26.35881 | 134.93082 | 35137 ft | 450 kts | 162° |
| 2026-04-26 04:13 | -26.38814 | 134.94314 | 35171 ft | 452 kts | 162° |
| 2026-04-26 04:14 | -26.44714 | 134.96795 | 35186 ft | 452 kts | 162° |
| 2026-04-26 04:14 | -26.50575 | 134.99265 | 35184 ft | 449 kts | 162° |
| 2026-04-26 04:15 | -26.56396 | 135.01719 | 35191 ft | 446 kts | 162° |
| 2026-04-26 04:15 | -26.62191 | 135.04164 | 35191 ft | 444 kts | 163° |
| 2026-04-26 04:16 | -26.67971 | 135.06606 | 35197 ft | 444 kts | 163° |
| 2026-04-26 04:16 | -26.73759 | 135.09053 | 35194 ft | 445 kts | 163° |
| 2026-04-26 04:17 | -26.79526 | 135.11494 | 35199 ft | 447 kts | 163° |
| 2026-04-26 04:17 | -26.85351 | 135.13964 | 35196 ft | 449 kts | 163° |
| 2026-04-26 04:18 | -26.91198 | 135.16445 | 35200 ft | 450 kts | 163° |
| 2026-04-26 04:18 | -26.97063 | 135.18947 | 35196 ft | 452 kts | 163° |
| 2026-04-26 04:19 | -27.02950 | 135.21476 | 35201 ft | 453 kts | 163° |
| 2026-04-26 04:19 | -27.08839 | 135.24010 | 35193 ft | 453 kts | 163° |
| 2026-04-26 04:20 | -27.14729 | 135.26546 | 35198 ft | 453 kts | 163° |
| 2026-04-26 04:20 | -27.20620 | 135.29084 | 35196 ft | 453 kts | 163° |
| 2026-04-26 04:21 | -27.26513 | 135.31625 | 35199 ft | 453 kts | 163° |
| 2026-04-26 04:21 | -27.32400 | 135.34167 | 35197 ft | 453 kts | 163° |
| 2026-04-26 04:22 | -27.38288 | 135.36712 | 35203 ft | 453 kts | 163° |
| 2026-04-26 04:22 | -27.44084 | 135.39221 | 35205 ft | 453 kts | 163° |
| 2026-04-26 04:23 | -27.50013 | 135.41790 | 35210 ft | 453 kts | 163° |
| 2026-04-26 04:23 | -27.54937 | 135.43925 | 35200 ft | 453 kts | 164° |
| 2026-04-26 04:24 | -27.60874 | 135.46243 | 35267 ft | 447 kts | 163° |
| 2026-04-26 04:24 | -27.66670 | 135.48319 | 35211 ft | 429 kts | 164° |
| 2026-04-26 04:25 | -27.72345 | 135.50361 | 35218 ft | 428 kts | 164° |
| 2026-04-26 04:25 | -27.77984 | 135.52416 | 35209 ft | 428 kts | 163° |
| 2026-04-26 04:26 | -27.83659 | 135.54501 | 35213 ft | 430 kts | 163° |
| 2026-04-26 04:26 | -27.89356 | 135.56600 | 35213 ft | 431 kts | 163° |
| 2026-04-26 04:27 | -27.95070 | 135.58707 | 35219 ft | 433 kts | 163° |
| 2026-04-26 04:27 | -28.00809 | 135.60826 | 35214 ft | 434 kts | 163° |
| 2026-04-26 04:28 | -28.06563 | 135.62953 | 35214 ft | 435 kts | 164° |
| 2026-04-26 04:28 | -28.12328 | 135.65086 | 35212 ft | 436 kts | 164° |
| 2026-04-26 04:29 | -28.18089 | 135.67219 | 35212 ft | 436 kts | 164° |
| 2026-04-26 04:29 | -28.23851 | 135.69356 | 35213 ft | 435 kts | 164° |
| 2026-04-26 04:30 | -28.29569 | 135.71479 | 35214 ft | 435 kts | 164° |
| 2026-04-26 04:30 | -28.35313 | 135.73614 | 35221 ft | 434 kts | 164° |
| 2026-04-26 04:31 | -28.41062 | 135.75753 | 35221 ft | 433 kts | 164° |
| 2026-04-26 04:31 | -28.46783 | 135.77885 | 35222 ft | 432 kts | 164° |
| 2026-04-26 04:32 | -28.52498 | 135.80016 | 35217 ft | 432 kts | 164° |
| 2026-04-26 04:32 | -28.58201 | 135.82145 | 35220 ft | 431 kts | 164° |
| 2026-04-26 04:33 | -28.63900 | 135.84276 | 35220 ft | 431 kts | 164° |
| 2026-04-26 04:33 | -28.69525 | 135.86381 | 35227 ft | 430 kts | 164° |
| 2026-04-26 04:34 | -28.75220 | 135.88514 | 35220 ft | 430 kts | 164° |
| 2026-04-26 04:34 | -28.80914 | 135.90649 | 35218 ft | 430 kts | 164° |
| 2026-04-26 04:35 | -28.86611 | 135.92789 | 35223 ft | 430 kts | 164° |
| 2026-04-26 04:35 | -28.92279 | 135.94919 | 35216 ft | 430 kts | 164° |
| 2026-04-26 04:36 | -28.97966 | 135.97060 | 35225 ft | 430 kts | 164° |
| 2026-04-26 04:36 | -29.03609 | 135.99186 | 35229 ft | 429 kts | 164° |
| 2026-04-26 04:37 | -29.09282 | 136.01326 | 35227 ft | 429 kts | 164° |
| 2026-04-26 04:37 | -29.14949 | 136.03467 | 35226 ft | 429 kts | 164° |
| 2026-04-26 04:38 | -29.20618 | 136.05610 | 35220 ft | 429 kts | 164° |
| 2026-04-26 04:38 | -29.26291 | 136.07758 | 35227 ft | 429 kts | 165° |
| 2026-04-26 04:39 | -29.31954 | 136.09904 | 35227 ft | 429 kts | 165° |
| 2026-04-26 04:39 | -29.37580 | 136.12039 | 35224 ft | 428 kts | 165° |
| 2026-04-26 04:40 | -29.43235 | 136.14188 | 35222 ft | 428 kts | 165° |
| 2026-04-26 04:40 | -29.48897 | 136.16342 | 35225 ft | 428 kts | 165° |
| 2026-04-26 04:41 | -29.54548 | 136.18493 | 35229 ft | 428 kts | 165° |
| 2026-04-26 04:41 | -29.60195 | 136.20647 | 35227 ft | 427 kts | 165° |
| 2026-04-26 04:42 | -29.65834 | 136.22799 | 35225 ft | 427 kts | 165° |
| 2026-04-26 04:42 | -29.71478 | 136.24959 | 35229 ft | 427 kts | 165° |
| 2026-04-26 04:43 | -29.77066 | 136.27111 | 35231 ft | 426 kts | 165° |
| 2026-04-26 04:43 | -29.82686 | 136.29281 | 35229 ft | 426 kts | 165° |
| 2026-04-26 04:44 | -29.88302 | 136.31450 | 35229 ft | 425 kts | 165° |
| 2026-04-26 04:44 | -29.93904 | 136.33617 | 35229 ft | 425 kts | 165° |
| 2026-04-26 04:45 | -29.99509 | 136.35786 | 35227 ft | 424 kts | 165° |
| 2026-04-26 04:45 | -30.05103 | 136.37954 | 35233 ft | 424 kts | 165° |
| 2026-04-26 04:46 | -30.10694 | 136.40123 | 35234 ft | 423 kts | 165° |
| 2026-04-26 04:46 | -30.16281 | 136.42294 | 35229 ft | 423 kts | 165° |
| 2026-04-26 04:47 | -30.21864 | 136.44465 | 35230 ft | 423 kts | 165° |
| 2026-04-26 04:47 | -30.27441 | 136.46636 | 35234 ft | 423 kts | 165° |
| 2026-04-26 04:48 | -30.35762 | 136.49882 | 35227 ft | 422 kts | 165° |
| 2026-04-26 04:48 | -30.41329 | 136.52056 | 35236 ft | 422 kts | 165° |
| 2026-04-26 04:49 | -30.46897 | 136.54233 | 35233 ft | 422 kts | 165° |
| 2026-04-26 04:49 | -30.52457 | 136.56410 | 35232 ft | 422 kts | 165° |
| 2026-04-26 04:50 | -30.58015 | 136.58589 | 35227 ft | 421 kts | 165° |
| 2026-04-26 04:50 | -30.63581 | 136.60773 | 35235 ft | 421 kts | 165° |
| 2026-04-26 04:51 | -30.69132 | 136.62955 | 35238 ft | 421 kts | 165° |
| 2026-04-26 04:51 | -30.74685 | 136.65139 | 35239 ft | 421 kts | 165° |
| 2026-04-26 04:52 | -30.80231 | 136.67324 | 35238 ft | 421 kts | 165° |
| 2026-04-26 04:52 | -30.85773 | 136.69510 | 35244 ft | 420 kts | 165° |
| 2026-04-26 04:53 | -30.91316 | 136.71698 | 35250 ft | 420 kts | 165° |
| 2026-04-26 04:53 | -30.96851 | 136.73887 | 35247 ft | 420 kts | 165° |
| 2026-04-26 04:54 | -31.02389 | 136.76079 | 35255 ft | 420 kts | 165° |
| 2026-04-26 04:54 | -31.07920 | 136.78272 | 35258 ft | 420 kts | 165° |
| 2026-04-26 04:55 | -31.13414 | 136.80452 | 35260 ft | 419 kts | 165° |
| 2026-04-26 04:55 | -31.18956 | 136.82562 | 35257 ft | 418 kts | 166° |
| 2026-04-26 04:56 | -31.24517 | 136.84577 | 35260 ft | 418 kts | 167° |
| 2026-04-26 04:56 | -31.30077 | 136.86595 | 35251 ft | 418 kts | 166° |
| 2026-04-26 04:57 | -31.35636 | 136.88629 | 35248 ft | 418 kts | 166° |
| 2026-04-26 04:57 | -31.41184 | 136.90668 | 35245 ft | 418 kts | 166° |
| 2026-04-26 04:58 | -31.46734 | 136.92713 | 35243 ft | 418 kts | 166° |
| 2026-04-26 04:58 | -31.52281 | 136.94759 | 35239 ft | 418 kts | 166° |
| 2026-04-26 04:59 | -31.57819 | 136.96804 | 35241 ft | 417 kts | 166° |
| 2026-04-26 04:59 | -31.63319 | 136.98837 | 35242 ft | 417 kts | 166° |
| 2026-04-26 05:00 | -31.68855 | 137.00886 | 35233 ft | 417 kts | 167° |
| 2026-04-26 05:00 | -31.74382 | 137.02935 | 35245 ft | 417 kts | 167° |
| 2026-04-26 05:01 | -31.79912 | 137.04986 | 35243 ft | 416 kts | 167° |
| 2026-04-26 05:01 | -31.85439 | 137.07040 | 35239 ft | 416 kts | 167° |
| 2026-04-26 05:02 | -31.90960 | 137.09094 | 35240 ft | 416 kts | 167° |
| 2026-04-26 05:02 | -31.96474 | 137.11148 | 35239 ft | 415 kts | 167° |
| 2026-04-26 05:03 | -32.01985 | 137.13203 | 35241 ft | 415 kts | 167° |
| 2026-04-26 05:03 | -32.07488 | 137.15258 | 35242 ft | 415 kts | 167° |
| 2026-04-26 05:04 | -32.12987 | 137.17314 | 35245 ft | 414 kts | 167° |
| 2026-04-26 05:04 | -32.18444 | 137.19357 | 35241 ft | 414 kts | 167° |
| 2026-04-26 05:05 | -32.23931 | 137.21414 | 35247 ft | 413 kts | 167° |
| 2026-04-26 05:05 | -32.29418 | 137.23472 | 35248 ft | 414 kts | 167° |
| 2026-04-26 05:06 | -32.34903 | 137.25534 | 35245 ft | 414 kts | 167° |
| 2026-04-26 05:06 | -32.40385 | 137.27597 | 35249 ft | 414 kts | 167° |
| 2026-04-26 05:07 | -32.45870 | 137.29671 | 35247 ft | 414 kts | 165° |
| 2026-04-26 05:07 | -32.48494 | 137.31146 | 35243 ft | 423 kts | 152° |
| 2026-04-26 05:07 | -32.50845 | 137.33298 | 35263 ft | 429 kts | 146° |
| 2026-04-26 05:08 | -32.55330 | 137.37982 | 35250 ft | 430 kts | 145° |
| 2026-04-26 05:08 | -32.59799 | 137.42707 | 35255 ft | 430 kts | 145° |
| 2026-04-26 05:09 | -32.64285 | 137.47388 | 35258 ft | 429 kts | 146° |
| 2026-04-26 05:09 | -32.68778 | 137.52041 | 35264 ft | 429 kts | 146° |
| 2026-04-26 05:10 | -32.73272 | 137.56693 | 35262 ft | 428 kts | 146° |
| 2026-04-26 05:10 | -32.77005 | 137.60561 | 35264 ft | 428 kts | 146° |
| 2026-04-26 05:11 | -32.82217 | 137.65972 | 35265 ft | 428 kts | 146° |
| 2026-04-26 05:11 | -32.86693 | 137.70625 | 35270 ft | 427 kts | 146° |
| 2026-04-26 05:12 | -32.91055 | 137.75168 | 35270 ft | 426 kts | 146° |
| 2026-04-26 05:12 | -32.94792 | 137.79064 | 35264 ft | 426 kts | 146° |
| 2026-04-26 05:13 | -32.99240 | 137.83707 | 35270 ft | 425 kts | 146° |
| 2026-04-26 05:13 | -33.03679 | 137.88348 | 35274 ft | 424 kts | 146° |
| 2026-04-26 05:14 | -33.08106 | 137.92981 | 35271 ft | 423 kts | 146° |
| 2026-04-26 05:14 | -33.12527 | 137.97616 | 35273 ft | 423 kts | 146° |
| 2026-04-26 05:15 | -33.16911 | 138.02219 | 35273 ft | 423 kts | 146° |
| 2026-04-26 05:15 | -33.21344 | 138.06875 | 34877 ft | 429 kts | 146° |
| 2026-04-26 05:16 | -33.23674 | 138.09059 | 34293 ft | 420 kts | 155° |
| 2026-04-26 05:16 | -33.26294 | 138.10485 | 33575 ft | 410 kts | 167° |
| 2026-04-26 05:16 | -33.29017 | 138.11482 | 32863 ft | 409 kts | 168° |
| 2026-04-26 05:16 | -33.31752 | 138.12431 | 32127 ft | 410 kts | 168° |
| 2026-04-26 05:17 | -33.34495 | 138.13375 | 31389 ft | 410 kts | 168° |
| 2026-04-26 05:17 | -33.37243 | 138.14329 | 30642 ft | 412 kts | 168° |
| 2026-04-26 05:17 | -33.39999 | 138.15299 | 29775 ft | 415 kts | 168° |
| 2026-04-26 05:17 | -33.42772 | 138.16286 | 28863 ft | 416 kts | 167° |
| 2026-04-26 05:18 | -33.45541 | 138.17280 | 28077 ft | 415 kts | 167° |
| 2026-04-26 05:18 | -33.48277 | 138.18270 | 27485 ft | 409 kts | 167° |
| 2026-04-26 05:18 | -33.50996 | 138.19256 | 26877 ft | 405 kts | 167° |
| 2026-04-26 05:18 | -33.53675 | 138.20229 | 26288 ft | 400 kts | 167° |
| 2026-04-26 05:19 | -33.56328 | 138.21191 | 25707 ft | 396 kts | 167° |
| 2026-04-26 05:19 | -33.58926 | 138.22134 | 25142 ft | 392 kts | 167° |
| 2026-04-26 05:19 | -33.61524 | 138.23077 | 24580 ft | 389 kts | 166° |
| 2026-04-26 05:19 | -33.64109 | 138.24015 | 24016 ft | 386 kts | 166° |
| 2026-04-26 05:20 | -33.66671 | 138.24945 | 23399 ft | 383 kts | 166° |
| 2026-04-26 05:20 | -33.69209 | 138.25868 | 22792 ft | 380 kts | 166° |
| 2026-04-26 05:20 | -33.71725 | 138.26783 | 22244 ft | 375 kts | 166° |
| 2026-04-26 05:20 | -33.74205 | 138.27686 | 21707 ft | 370 kts | 166° |
| 2026-04-26 05:21 | -33.76660 | 138.28580 | 21181 ft | 366 kts | 166° |
| 2026-04-26 05:21 | -33.79088 | 138.29465 | 20657 ft | 363 kts | 166° |
| 2026-04-26 05:21 | -33.81491 | 138.30341 | 20136 ft | 360 kts | 166° |
| 2026-04-26 05:21 | -33.83877 | 138.31211 | 19628 ft | 357 kts | 165° |
| 2026-04-26 05:22 | -33.86240 | 138.32073 | 19128 ft | 354 kts | 165° |
| 2026-04-26 05:22 | -33.88590 | 138.32931 | 18635 ft | 351 kts | 165° |
| 2026-04-26 05:22 | -33.90923 | 138.33783 | 18081 ft | 349 kts | 165° |
| 2026-04-26 05:22 | -33.93249 | 138.34633 | 17563 ft | 349 kts | 165° |
| 2026-04-26 05:23 | -33.95567 | 138.35481 | 17049 ft | 349 kts | 165° |
| 2026-04-26 05:23 | -33.97916 | 138.36340 | 16544 ft | 359 kts | 164° |
| 2026-04-26 05:23 | -34.00365 | 138.37235 | 16024 ft | 375 kts | 164° |
| 2026-04-26 05:23 | -34.02868 | 138.38152 | 15471 ft | 376 kts | 163° |
| 2026-04-26 05:24 | -34.05357 | 138.39066 | 14936 ft | 373 kts | 163° |
| 2026-04-26 05:24 | -34.07827 | 138.39974 | 14421 ft | 370 kts | 163° |
| 2026-04-26 05:24 | -34.10292 | 138.40880 | 13875 ft | 369 kts | 163° |
| 2026-04-26 05:24 | -34.12747 | 138.41782 | 13304 ft | 368 kts | 163° |
| 2026-04-26 05:25 | -34.15194 | 138.42682 | 12765 ft | 366 kts | 163° |
| 2026-04-26 05:25 | -34.17619 | 138.43574 | 12247 ft | 364 kts | 163° |
| 2026-04-26 05:25 | -34.20036 | 138.44464 | 11743 ft | 362 kts | 163° |
| 2026-04-26 05:25 | -34.22421 | 138.45343 | 11391 ft | 355 kts | 163° |
| 2026-04-26 05:26 | -34.24765 | 138.46207 | 11186 ft | 347 kts | 163° |
| 2026-04-26 05:26 | -34.27051 | 138.47049 | 10931 ft | 341 kts | 163° |
| 2026-04-26 05:26 | -34.29311 | 138.47883 | 10743 ft | 336 kts | 163° |
| 2026-04-26 05:26 | -34.31483 | 138.48685 | 10586 ft | 327 kts | 163° |
| 2026-04-26 05:27 | -34.33662 | 138.49490 | 10438 ft | 318 kts | 163° |
| 2026-04-26 05:27 | -34.35745 | 138.50260 | 10300 ft | 309 kts | 163° |
| 2026-04-26 05:27 | -34.37746 | 138.51000 | 10172 ft | 300 kts | 163° |
| 2026-04-26 05:27 | -34.39715 | 138.51728 | 10040 ft | 292 kts | 163° |
| 2026-04-26 05:28 | -34.41641 | 138.52441 | 9778 ft | 289 kts | 163° |
| 2026-04-26 05:28 | -34.43540 | 138.53144 | 9471 ft | 281 kts | 163° |
| 2026-04-26 05:28 | -34.45394 | 138.53831 | 9192 ft | 278 kts | 163° |
| 2026-04-26 05:28 | -34.47237 | 138.54514 | 8904 ft | 276 kts | 164° |
| 2026-04-26 05:29 | -34.49049 | 138.55186 | 8617 ft | 269 kts | 164° |
| 2026-04-26 05:29 | -34.50813 | 138.55841 | 8338 ft | 262 kts | 164° |
| 2026-04-26 05:29 | -34.52537 | 138.56481 | 8058 ft | 256 kts | 164° |
| 2026-04-26 05:29 | -34.54235 | 138.57111 | 7812 ft | 256 kts | 164° |
| 2026-04-26 05:30 | -34.55941 | 138.57744 | 7557 ft | 258 kts | 164° |
| 2026-04-26 05:30 | -34.57686 | 138.58392 | 7319 ft | 269 kts | 164° |
| 2026-04-26 05:30 | -34.59499 | 138.59065 | 7019 ft | 274 kts | 164° |
| 2026-04-26 05:30 | -34.61318 | 138.59742 | 6731 ft | 273 kts | 164° |
| 2026-04-26 05:31 | -34.63127 | 138.60426 | 6439 ft | 272 kts | 162° |
| 2026-04-26 05:31 | -34.64753 | 138.61588 | 6136 ft | 273 kts | 141° |
| 2026-04-26 05:31 | -34.66189 | 138.63074 | 5893 ft | 271 kts | 141° |
| 2026-04-26 05:31 | -34.67625 | 138.64552 | 5608 ft | 270 kts | 141° |
| 2026-04-26 05:32 | -34.69062 | 138.66011 | 5327 ft | 269 kts | 142° |
| 2026-04-26 05:32 | -34.70486 | 138.67447 | 5167 ft | 260 kts | 142° |
| 2026-04-26 05:32 | -34.71842 | 138.68812 | 5039 ft | 246 kts | 142° |
| 2026-04-26 05:32 | -34.73148 | 138.70123 | 4860 ft | 243 kts | 142° |
| 2026-04-26 05:33 | -34.74449 | 138.71430 | 4604 ft | 242 kts | 142° |
| 2026-04-26 05:33 | -34.75724 | 138.72710 | 4437 ft | 237 kts | 143° |
| 2026-04-26 05:33 | -34.76978 | 138.73961 | 4330 ft | 229 kts | 146° |
| 2026-04-26 05:33 | -34.78407 | 138.74588 | 4303 ft | 214 kts | 187° |
| 2026-04-26 05:34 | -34.79726 | 138.73987 | 4189 ft | 201 kts | 219° |
| 2026-04-26 05:34 | -34.80808 | 138.72925 | 3951 ft | 199 kts | 223° |
| 2026-04-26 05:34 | -34.81829 | 138.71806 | 3693 ft | 196 kts | 224° |
| 2026-04-26 05:34 | -34.82787 | 138.70655 | 3439 ft | 191 kts | 227° |
| 2026-04-26 05:35 | -34.83644 | 138.69483 | 3193 ft | 180 kts | 230° |
| 2026-04-26 05:35 | -34.84430 | 138.68353 | 2957 ft | 171 kts | 230° |
| 2026-04-26 05:35 | -34.85196 | 138.67238 | 2734 ft | 171 kts | 230° |
| 2026-04-26 05:35 | -34.85956 | 138.66130 | 2512 ft | 168 kts | 230° |
| 2026-04-26 05:36 | -34.86674 | 138.65083 | 2276 ft | 153 kts | 229° |
| 2026-04-26 05:36 | -34.87328 | 138.64130 | 2068 ft | 143 kts | 230° |
| 2026-04-26 05:36 | -34.87959 | 138.63212 | 1868 ft | 140 kts | 230° |
| 2026-04-26 05:36 | -34.88581 | 138.62305 | 1699 ft | 142 kts | 230° |
| 2026-04-26 05:37 | -34.89216 | 138.61379 | 1531 ft | 143 kts | 229° |
| 2026-04-26 05:37 | -34.89860 | 138.60442 | 1331 ft | 144 kts | 229° |
| 2026-04-26 05:37 | -34.90511 | 138.59494 | 1130 ft | 147 kts | 230° |
| 2026-04-26 05:37 | -34.91168 | 138.58537 | 907 ft | 148 kts | 230° |
| 2026-04-26 05:38 | -34.91817 | 138.57593 | 713 ft | 143 kts | 229° |
| 2026-04-26 05:38 | -34.92438 | 138.56690 | 530 ft | 135 kts | 229° |
| 2026-04-26 05:38 | -34.93045 | 138.55804 | 389 ft | 138 kts | 230° |
| 2026-04-26 05:38 | -34.93670 | 138.54914 | 187 ft | 142 kts | 230° |
| 2026-04-26 05:39 | -34.94289 | 138.53992 | 36 ft | 137 kts | 227° |
| 2026-04-26 05:39 | -34.94810 | 138.53242 | 27 ft | 86 kts | 230° |
| 2026-04-26 05:39 | -34.95068 | 138.52864 | 23 ft | 36 kts | 230° |
| 2026-04-26 05:39 | -34.95200 | 138.52669 | 21 ft | 17 kts | 232° |
| 2026-04-26 05:40 | -34.95233 | 138.52556 | 19 ft | 13 kts | 304° |
| 2026-04-26 05:40 | -34.95195 | 138.52512 | 20 ft | 0 kts | 320° |
| 2026-04-26 05:40 | -34.95192 | 138.52509 | 20 ft | 1 kts | 320° |
| 2026-04-26 05:41 | -34.95188 | 138.52505 | 20 ft | 0 kts | 320° |
| 2026-04-26 05:42 | -34.95179 | 138.52495 | 19 ft | 5 kts | 320° |
| 2026-04-26 05:42 | -34.95121 | 138.52457 | 21 ft | 13 kts | 340° |
| 2026-04-26 05:42 | -34.95019 | 138.52466 | 21 ft | 16 kts | 28° |
| 2026-04-26 05:43 | -34.94932 | 138.52543 | 22 ft | 15 kts | 37° |
| 2026-04-26 05:43 | -34.94851 | 138.52621 | 22 ft | 16 kts | 38° |
| 2026-04-26 05:43 | -34.94744 | 138.52721 | 24 ft | 23 kts | 37° |
| 2026-04-26 05:43 | -34.94610 | 138.52847 | 28 ft | 23 kts | 37° |
| 2026-04-26 05:44 | -34.94510 | 138.52940 | 27 ft | 17 kts | 38° |
| 2026-04-26 05:44 | -34.94473 | 138.52976 | 26 ft | 3 kts | 38° |
| 2026-04-26 05:44 | -34.94455 | 138.52996 | 26 ft | 5 kts | 49° |
| 2026-04-26 05:44 | -34.94447 | 138.53070 | 24 ft | 13 kts | 99° |
| 2026-04-26 05:45 | -34.94495 | 138.53197 | 24 ft | 20 kts | 118° |
| 2026-04-26 05:45 | -34.94491 | 138.53362 | 21 ft | 20 kts | 54° |
| 2026-04-26 05:45 | -34.94402 | 138.53492 | 21 ft | 20 kts | 49° |